sensor_id;sensor_type;location;lat;lon;timestamp;pressure;altitude;pressure_sealevel;temperature;humidity
63731;BME280;49747;51.334;6.830;2023-03-08T00:01:02;99556.41;;;10.39;59.11
63731;BME280;49747;51.334;6.830;2023-03-08T00:03:28;99546.78;;;10.38;59.47
63731;BME280;49747;51.334;6.830;2023-03-08T00:05:55;99550.97;;;10.40;59.46
63731;BME280;49747;51.334;6.830;2023-03-08T00:08:21;99560.75;;;10.40;59.46
63731;BME280;49747;51.334;6.830;2023-03-08T00:10:48;99561.47;;;10.42;59.46
63731;BME280;49747;51.334;6.830;2023-03-08T00:13:14;99560.59;;;10.41;59.18
63731;BME280;49747;51.334;6.830;2023-03-08T00:15:41;99549.97;;;10.41;59.20
63731;BME280;49747;51.334;6.830;2023-03-08T00:18:07;99552.63;;;10.41;59.06
63731;BME280;49747;51.334;6.830;2023-03-08T00:20:33;99542.16;;;10.40;59.37
63731;BME280;49747;51.334;6.830;2023-03-08T00:23:00;99552.63;;;10.41;59.23
63731;BME280;49747;51.334;6.830;2023-03-08T00:25:26;99549.97;;;10.41;59.26
63731;BME280;49747;51.334;6.830;2023-03-08T00:27:53;99547.63;;;10.38;59.38
63731;BME280;49747;51.334;6.830;2023-03-08T00:30:20;99554.88;;;10.36;59.22
63731;BME280;49747;51.334;6.830;2023-03-08T00:32:46;99555.84;;;10.35;59.64
63731;BME280;49747;51.334;6.830;2023-03-08T00:35:13;99555.59;;;10.38;59.25
63731;BME280;49747;51.334;6.830;2023-03-08T00:37:39;99553.03;;;10.36;59.56
63731;BME280;49747;51.334;6.830;2023-03-08T00:40:06;99556.69;;;10.35;59.58
63731;BME280;49747;51.334;6.830;2023-03-08T00:42:33;99567.03;;;10.39;59.18
63731;BME280;49747;51.334;6.830;2023-03-08T00:45:00;99558.34;;;10.36;59.26
63731;BME280;49747;51.334;6.830;2023-03-08T00:47:26;99562.97;;;10.34;59.34
63731;BME280;49747;51.334;6.830;2023-03-08T00:49:52;99554.03;;;10.35;59.58
63731;BME280;49747;51.334;6.830;2023-03-08T00:52:19;99554.44;;;10.31;59.91
63731;BME280;49747;51.334;6.830;2023-03-08T00:54:46;99558.50;;;10.35;59.70
63731;BME280;49747;51.334;6.830;2023-03-08T00:57:12;99552.38;;;10.34;60.06
63731;BME280;49747;51.334;6.830;2023-03-08T00:59:38;99559.50;;;10.34;60.16
63731;BME280;49747;51.334;6.830;2023-03-08T01:02:05;99548.03;;;10.33;60.01
63731;BME280;49747;51.334;6.830;2023-03-08T01:04:32;99542.56;;;10.35;59.92
63731;BME280;49747;51.334;6.830;2023-03-08T01:06:59;99536.44;;;10.34;60.03
63731;BME280;49747;51.334;6.830;2023-03-08T01:09:26;99535.44;;;10.35;59.84
63731;BME280;49747;51.334;6.830;2023-03-08T01:11:52;99532.78;;;10.35;60.03
63731;BME280;49747;51.334;6.830;2023-03-08T01:14:18;99526.81;;;10.33;59.93
63731;BME280;49747;51.334;6.830;2023-03-08T01:16:45;99526.50;;;10.36;59.85
63731;BME280;49747;51.334;6.830;2023-03-08T01:19:11;99524.84;;;10.35;59.96
63731;BME280;49747;51.334;6.830;2023-03-08T01:21:39;99525.66;;;10.36;59.71
63731;BME280;49747;51.334;6.830;2023-03-08T01:24:06;99517.59;;;10.38;59.66
63731;BME280;49747;51.334;6.830;2023-03-08T01:26:32;99512.53;;;10.34;59.58
63731;BME280;49747;51.334;6.830;2023-03-08T01:28:59;99511.56;;;10.35;59.47
63731;BME280;49747;51.334;6.830;2023-03-08T01:31:30;99509.06;;;10.34;59.71
63731;BME280;49747;51.334;6.830;2023-03-08T01:33:58;99507.09;;;10.36;59.72
63731;BME280;49747;51.334;6.830;2023-03-08T01:36:26;99505.56;;;10.33;60.07
63731;BME280;49747;51.334;6.830;2023-03-08T01:38:53;99500.25;;;10.33;59.64
63731;BME280;49747;51.334;6.830;2023-03-08T01:41:25;99507.91;;;10.36;59.54
63731;BME280;49747;51.334;6.830;2023-03-08T01:43:52;99503.59;;;10.35;59.51
63731;BME280;49747;51.334;6.830;2023-03-08T01:48:59;99495.63;;;10.35;59.67
63731;BME280;49747;51.334;6.830;2023-03-08T01:51:37;99490.31;;;10.35;59.26
63731;BME280;49747;51.334;6.830;2023-03-08T01:54:08;99486.97;;;10.33;59.50
63731;BME280;49747;51.334;6.830;2023-03-08T01:56:37;99484.19;;;10.35;59.76
63731;BME280;49747;51.334;6.830;2023-03-08T01:59:05;99479.28;;;10.30;59.91
63731;BME280;49747;51.334;6.830;2023-03-08T02:01:33;99474.09;;;10.29;59.67
63731;BME280;49747;51.334;6.830;2023-03-08T02:04:00;99472.31;;;10.29;59.32
63731;BME280;49747;51.334;6.830;2023-03-08T02:06:27;99464.47;;;10.28;59.64
63731;BME280;49747;51.334;6.830;2023-03-08T02:08:55;99453.00;;;10.27;59.59
63731;BME280;49747;51.334;6.830;2023-03-08T02:11:22;99441.81;;;10.24;59.36
63731;BME280;49747;51.334;6.830;2023-03-08T02:13:51;99444.22;;;10.27;58.80
63731;BME280;49747;51.334;6.830;2023-03-08T02:16:20;99442.41;;;10.27;58.80
63731;BME280;49747;51.334;6.830;2023-03-08T02:18:49;99439.91;;;10.26;58.94
63731;BME280;49747;51.334;6.830;2023-03-08T02:21:16;99434.84;;;10.23;59.07
63731;BME280;49747;51.334;6.830;2023-03-08T02:23:42;99425.88;;;10.24;59.10
63731;BME280;49747;51.334;6.830;2023-03-08T02:26:09;99433.75;;;10.25;59.48
63731;BME280;49747;51.334;6.830;2023-03-08T02:28:35;99435.41;;;10.26;59.52
63731;BME280;49747;51.334;6.830;2023-03-08T02:31:02;99436.50;;;10.24;58.82
63731;BME280;49747;51.334;6.830;2023-03-08T02:33:28;99440.25;;;10.21;59.55
63731;BME280;49747;51.334;6.830;2023-03-08T02:35:56;99440.56;;;10.18;59.67
63731;BME280;49747;51.334;6.830;2023-03-08T02:38:24;99450.59;;;10.24;59.83
63731;BME280;49747;51.334;6.830;2023-03-08T02:40:50;99435.09;;;10.20;59.59
63731;BME280;49747;51.334;6.830;2023-03-08T02:43:18;99443.38;;;10.26;59.88
63731;BME280;49747;51.334;6.830;2023-03-08T02:45:45;99425.31;;;10.20;59.99
63731;BME280;49747;51.334;6.830;2023-03-08T02:48:12;99423.97;;;10.26;59.48
63731;BME280;49747;51.334;6.830;2023-03-08T02:50:39;99419.75;;;10.23;59.26
63731;BME280;49747;51.334;6.830;2023-03-08T02:53:06;99414.59;;;10.22;59.21
63731;BME280;49747;51.334;6.830;2023-03-08T02:55:33;99419.75;;;10.23;59.44
63731;BME280;49747;51.334;6.830;2023-03-08T02:58:08;99416.38;;;10.21;59.64
63731;BME280;49747;51.334;6.830;2023-03-08T03:00:36;99417.34;;;10.20;59.14
63731;BME280;49747;51.334;6.830;2023-03-08T03:03:03;99413.88;;;10.20;59.79
63731;BME280;49747;51.334;6.830;2023-03-08T03:05:29;99424.63;;;10.18;59.88
63731;BME280;49747;51.334;6.830;2023-03-08T03:07:58;99423.25;;;10.14;59.53
63731;BME280;49747;51.334;6.830;2023-03-08T03:10:26;99423.50;;;10.11;59.25
63731;BME280;49747;51.334;6.830;2023-03-08T03:12:53;99416.53;;;10.10;59.25
63731;BME280;49747;51.334;6.830;2023-03-08T03:15:23;99406.75;;;10.10;59.33
63731;BME280;49747;51.334;6.830;2023-03-08T03:17:53;99407.75;;;10.09;59.73
63731;BME280;49747;51.334;6.830;2023-03-08T03:20:20;99392.66;;;10.10;60.09
63731;BME280;49747;51.334;6.830;2023-03-08T03:22:46;99393.47;;;10.01;59.87
63731;BME280;49747;51.334;6.830;2023-03-08T03:25:14;99390.13;;;9.99;59.63
63731;BME280;49747;51.334;6.830;2023-03-08T03:27:42;99386.50;;;10.00;59.35
63731;BME280;49747;51.334;6.830;2023-03-08T03:30:09;99396.13;;;10.01;59.49
63731;BME280;49747;51.334;6.830;2023-03-08T03:32:36;99387.34;;;10.00;59.82
63731;BME280;49747;51.334;6.830;2023-03-08T03:35:03;99385.41;;;10.02;59.70
63731;BME280;49747;51.334;6.830;2023-03-08T03:37:30;99378.69;;;9.98;59.50
63731;BME280;49747;51.334;6.830;2023-03-08T03:39:58;99381.91;;;10.02;59.61
63731;BME280;49747;51.334;6.830;2023-03-08T03:42:25;99377.44;;;10.02;59.26
63731;BME280;49747;51.334;6.830;2023-03-08T03:45:01;99384.84;;;9.99;59.73
63731;BME280;49747;51.334;6.830;2023-03-08T03:47:27;99369.47;;;10.02;59.66
63731;BME280;49747;51.334;6.830;2023-03-08T03:49:57;99369.31;;;10.04;59.42
63731;BME280;49747;51.334;6.830;2023-03-08T03:52:27;99361.50;;;10.02;59.51
63731;BME280;49747;51.334;6.830;2023-03-08T03:54:59;99366.41;;;10.07;59.71
63731;BME280;49747;51.334;6.830;2023-03-08T03:57:26;99367.22;;;10.07;59.38
63731;BME280;49747;51.334;6.830;2023-03-08T03:59:53;99362.75;;;10.08;59.84
63731;BME280;49747;51.334;6.830;2023-03-08T04:02:21;99345.72;;;10.10;59.75
63731;BME280;49747;51.334;6.830;2023-03-08T04:04:53;99358.28;;;10.08;59.72
63731;BME280;49747;51.334;6.830;2023-03-08T04:07:24;99342.38;;;10.08;59.76
63731;BME280;49747;51.334;6.830;2023-03-08T04:09:59;99338.03;;;10.07;60.15
63731;BME280;49747;51.334;6.830;2023-03-08T04:12:25;99333.16;;;10.03;59.34
63731;BME280;49747;51.334;6.830;2023-03-08T04:14:52;99339.16;;;10.05;59.84
63731;BME280;49747;51.334;6.830;2023-03-08T04:17:19;99334.81;;;10.04;59.13
63731;BME280;49747;51.334;6.830;2023-03-08T04:19:50;99332.19;;;10.04;60.05
63731;BME280;49747;51.334;6.830;2023-03-08T04:22:18;99310.00;;;9.95;59.92
63731;BME280;49747;51.334;6.830;2023-03-08T04:24:50;99317.53;;;10.00;59.64
63731;BME280;49747;51.334;6.830;2023-03-08T04:27:23;99312.50;;;9.97;59.79
63731;BME280;49747;51.334;6.830;2023-03-08T04:29:49;99305.78;;;9.93;59.64
63731;BME280;49747;51.334;6.830;2023-03-08T04:32:16;99318.09;;;9.94;59.80
63731;BME280;49747;51.334;6.830;2023-03-08T04:34:53;99306.78;;;9.92;59.62
63731;BME280;49747;51.334;6.830;2023-03-08T04:37:24;99304.13;;;9.92;59.49
63731;BME280;49747;51.334;6.830;2023-03-08T04:39:55;99302.72;;;9.87;59.72
63731;BME280;49747;51.334;6.830;2023-03-08T04:42:22;99311.41;;;9.90;59.44
63731;BME280;49747;51.334;6.830;2023-03-08T04:44:49;99296.03;;;9.83;59.59
63731;BME280;49747;51.334;6.830;2023-03-08T04:47:19;99289.06;;;9.82;60.05
63731;BME280;49747;51.334;6.830;2023-03-08T04:49:46;99287.94;;;9.85;59.65
63731;BME280;49747;51.334;6.830;2023-03-08T04:52:13;99286.81;;;9.87;59.83
63731;BME280;49747;51.334;6.830;2023-03-08T04:54:40;99286.25;;;9.84;60.23
63731;BME280;49747;51.334;6.830;2023-03-08T04:57:15;99275.66;;;9.84;60.28
63731;BME280;49747;51.334;6.830;2023-03-08T04:59:42;99269.50;;;9.83;60.17
63731;BME280;49747;51.334;6.830;2023-03-08T05:02:09;99260.88;;;9.81;60.25
63731;BME280;49747;51.334;6.830;2023-03-08T05:04:36;99261.13;;;9.88;60.08
63731;BME280;49747;51.334;6.830;2023-03-08T05:07:03;99262.25;;;9.85;60.11
63731;BME280;49747;51.334;6.830;2023-03-08T05:09:32;99257.78;;;9.86;60.32
63731;BME280;49747;51.334;6.830;2023-03-08T05:12:00;99254.59;;;9.82;60.22
63731;BME280;49747;51.334;6.830;2023-03-08T05:14:37;99243.97;;;9.82;59.99
63731;BME280;49747;51.334;6.830;2023-03-08T05:17:04;99246.19;;;9.87;59.88
63731;BME280;49747;51.334;6.830;2023-03-08T05:19:33;99238.78;;;9.81;59.89
63731;BME280;49747;51.334;6.830;2023-03-08T05:21:59;99238.50;;;9.84;60.25
63731;BME280;49747;51.334;6.830;2023-03-08T05:24:26;99236.56;;;9.86;60.02
63731;BME280;49747;51.334;6.830;2023-03-08T05:26:54;99231.94;;;9.88;59.75
63731;BME280;49747;51.334;6.830;2023-03-08T05:29:21;99236.56;;;9.86;60.21
63731;BME280;49747;51.334;6.830;2023-03-08T05:31:49;99229.28;;;9.88;60.08
63731;BME280;49747;51.334;6.830;2023-03-08T05:34:16;99224.28;;;9.85;60.04
63731;BME280;49747;51.334;6.830;2023-03-08T05:36:45;99214.81;;;9.82;59.61
63731;BME280;49747;51.334;6.830;2023-03-08T05:39:12;99215.19;;;9.87;59.85
63731;BME280;49747;51.334;6.830;2023-03-08T05:41:49;99209.06;;;9.87;59.78
63731;BME280;49747;51.334;6.830;2023-03-08T05:44:22;99200.28;;;9.86;59.69
63731;BME280;49747;51.334;6.830;2023-03-08T05:46:49;99190.78;;;9.84;59.81
63731;BME280;49747;51.334;6.830;2023-03-08T05:49:15;99185.03;;;9.88;60.20
63731;BME280;49747;51.334;6.830;2023-03-08T05:51:43;99181.44;;;9.90;60.04
63731;BME280;49747;51.334;6.830;2023-03-08T05:54:09;99178.06;;;9.87;60.22
63731;BME280;49747;51.334;6.830;2023-03-08T05:56:37;99180.72;;;9.87;60.25
63731;BME280;49747;51.334;6.830;2023-03-08T05:59:09;99169.56;;;9.84;59.87
63731;BME280;49747;51.334;6.830;2023-03-08T06:01:36;99165.69;;;9.78;59.47
63731;BME280;49747;51.334;6.830;2023-03-08T06:04:13;99156.34;;;9.74;59.41
63731;BME280;49747;51.334;6.830;2023-03-08T06:06:41;99159.13;;;9.73;59.45
63731;BME280;49747;51.334;6.830;2023-03-08T06:09:08;99158.44;;;9.71;59.67
63731;BME280;49747;51.334;6.830;2023-03-08T06:11:37;99152.41;;;9.69;59.84
63731;BME280;49747;51.334;6.830;2023-03-08T06:14:04;99147.81;;;9.71;59.87
63731;BME280;49747;51.334;6.830;2023-03-08T06:16:32;99144.47;;;9.69;59.84
63731;BME280;49747;51.334;6.830;2023-03-08T06:19:02;99136.66;;;9.67;59.89
63731;BME280;49747;51.334;6.830;2023-03-08T06:21:30;99126.06;;;9.67;59.72
63731;BME280;49747;51.334;6.830;2023-03-08T06:24:00;99119.94;;;9.67;59.72
63731;BME280;49747;51.334;6.830;2023-03-08T06:26:27;99126.19;;;9.75;59.78
63731;BME280;49747;51.334;6.830;2023-03-08T06:28:54;99121.44;;;9.69;59.59
63731;BME280;49747;51.334;6.830;2023-03-08T06:31:24;99113.69;;;9.58;58.95
63731;BME280;49747;51.334;6.830;2023-03-08T06:33:50;99103.91;;;9.58;58.71
63731;BME280;49747;51.334;6.830;2023-03-08T06:36:21;99101.25;;;9.58;58.70
63731;BME280;49747;51.334;6.830;2023-03-08T06:38:49;99090.66;;;9.58;58.91
63731;BME280;49747;51.334;6.830;2023-03-08T06:41:16;99088.28;;;9.55;58.54
63731;BME280;49747;51.334;6.830;2023-03-08T06:43:47;99079.78;;;9.52;58.76
63731;BME280;49747;51.334;6.830;2023-03-08T06:46:15;99075.19;;;9.54;59.03
63731;BME280;49747;51.334;6.830;2023-03-08T06:48:42;99078.53;;;9.46;59.02
63731;BME280;49747;51.334;6.830;2023-03-08T06:51:09;99076.44;;;9.50;59.35
63731;BME280;49747;51.334;6.830;2023-03-08T06:53:37;99077.28;;;9.50;59.38
63731;BME280;49747;51.334;6.830;2023-03-08T06:56:06;99079.94;;;9.50;59.41
63731;BME280;49747;51.334;6.830;2023-03-08T06:58:34;99078.25;;;9.49;58.97
63731;BME280;49747;51.334;6.830;2023-03-08T07:01:01;99077.72;;;9.46;58.93
63731;BME280;49747;51.334;6.830;2023-03-08T07:03:29;99067.69;;;9.40;59.12
63731;BME280;49747;51.334;6.830;2023-03-08T07:06:06;99072.00;;;9.41;59.11
63731;BME280;49747;51.334;6.830;2023-03-08T07:08:34;99060.56;;;9.40;58.89
63731;BME280;49747;51.334;6.830;2023-03-08T07:11:01;99054.25;;;9.41;59.03
63731;BME280;49747;51.334;6.830;2023-03-08T07:13:28;99056.91;;;9.41;59.50
63731;BME280;49747;51.334;6.830;2023-03-08T07:15:55;99067.25;;;9.44;59.20
63731;BME280;49747;51.334;6.830;2023-03-08T07:18:22;99062.94;;;9.43;59.14
63731;BME280;49747;51.334;6.830;2023-03-08T07:20:53;99049.69;;;9.43;59.72
63731;BME280;49747;51.334;6.830;2023-03-08T07:23:20;99044.91;;;9.47;59.10
63731;BME280;49747;51.334;6.830;2023-03-08T07:25:46;99046.97;;;9.53;59.34
63731;BME280;49747;51.334;6.830;2023-03-08T07:28:13;99032.34;;;9.49;59.81
63731;BME280;49747;51.334;6.830;2023-03-08T07:30:39;99046.69;;;9.56;59.43
63731;BME280;49747;51.334;6.830;2023-03-08T07:33:10;99036.69;;;9.50;59.76
63731;BME280;49747;51.334;6.830;2023-03-08T07:35:36;99057.13;;;9.57;59.55
63731;BME280;49747;51.334;6.830;2023-03-08T07:38:05;99039.84;;;9.53;60.00
63731;BME280;49747;51.334;6.830;2023-03-08T07:40:32;99046.84;;;9.54;59.57
63731;BME280;49747;51.334;6.830;2023-03-08T07:42:58;99042.50;;;9.53;59.24
63731;BME280;49747;51.334;6.830;2023-03-08T07:45:48;99037.19;;;9.53;59.90
63731;BME280;49747;51.334;6.830;2023-03-08T07:48:15;99025.66;;;9.54;59.48
63731;BME280;49747;51.334;6.830;2023-03-08T07:50:41;99027.03;;;9.58;59.63
63731;BME280;49747;51.334;6.830;2023-03-08T07:53:08;99009.03;;;9.52;59.52
63731;BME280;49747;51.334;6.830;2023-03-08T07:55:35;99004.00;;;9.59;59.68
63731;BME280;49747;51.334;6.830;2023-03-08T07:58:02;99004.97;;;9.58;59.61
63731;BME280;49747;51.334;6.830;2023-03-08T08:00:28;98997.31;;;9.55;59.63
63731;BME280;49747;51.334;6.830;2023-03-08T08:02:55;99001.38;;;9.49;59.37
63731;BME280;49747;51.334;6.830;2023-03-08T08:05:22;98988.28;;;9.48;59.34
63731;BME280;49747;51.334;6.830;2023-03-08T08:07:51;98981.75;;;9.42;59.43
63731;BME280;49747;51.334;6.830;2023-03-08T08:10:18;98982.28;;;9.46;59.94
63731;BME280;49747;51.334;6.830;2023-03-08T08:12:44;98981.59;;;9.44;59.71
63731;BME280;49747;51.334;6.830;2023-03-08T08:15:11;98982.72;;;9.41;59.53
63731;BME280;49747;51.334;6.830;2023-03-08T08:17:38;98977.13;;;9.44;59.83
63731;BME280;49747;51.334;6.830;2023-03-08T08:20:04;98975.63;;;9.42;60.52
63731;BME280;49747;51.334;6.830;2023-03-08T08:22:34;98964.84;;;9.43;59.57
63731;BME280;49747;51.334;6.830;2023-03-08T08:25:05;98958.34;;;9.37;59.60
63731;BME280;49747;51.334;6.830;2023-03-08T08:27:34;98956.63;;;9.46;59.58
63731;BME280;49747;51.334;6.830;2023-03-08T08:30:02;98950.50;;;9.46;59.89
63731;BME280;49747;51.334;6.830;2023-03-08T08:32:32;98946.84;;;9.47;60.20
63731;BME280;49747;51.334;6.830;2023-03-08T08:34:58;98948.50;;;9.48;59.79
63731;BME280;49747;51.334;6.830;2023-03-08T08:37:25;98937.53;;;9.43;59.98
63731;BME280;49747;51.334;6.830;2023-03-08T08:39:52;98934.59;;;9.46;59.51
63731;BME280;49747;51.334;6.830;2023-03-08T08:42:18;98927.16;;;9.49;59.79
63731;BME280;49747;51.334;6.830;2023-03-08T08:44:45;98925.78;;;9.45;59.88
63731;BME280;49747;51.334;6.830;2023-03-08T08:47:12;98919.09;;;9.41;60.17
63731;BME280;49747;51.334;6.830;2023-03-08T08:49:39;98919.66;;;9.45;60.12
63731;BME280;49747;51.334;6.830;2023-03-08T08:52:05;98908.09;;;9.46;59.99
63731;BME280;49747;51.334;6.830;2023-03-08T08:54:32;98903.91;;;9.43;59.86
63731;BME280;49747;51.334;6.830;2023-03-08T08:56:59;98910.13;;;9.52;60.48
63731;BME280;49747;51.334;6.830;2023-03-08T08:59:25;98914.97;;;9.56;59.82
63731;BME280;49747;51.334;6.830;2023-03-08T09:01:52;98907.84;;;9.57;59.54
63731;BME280;49747;51.334;6.830;2023-03-08T09:04:18;98890.00;;;9.59;59.38
63731;BME280;49747;51.334;6.830;2023-03-08T09:06:46;98883.03;;;9.58;59.20
63731;BME280;49747;51.334;6.830;2023-03-08T09:09:12;98890.66;;;9.61;58.88
63731;BME280;49747;51.334;6.830;2023-03-08T09:11:39;98874.75;;;9.61;58.54
63731;BME280;49747;51.334;6.830;2023-03-08T09:14:19;98869.63;;;9.59;58.88
63731;BME280;49747;51.334;6.830;2023-03-08T09:16:46;98870.97;;;9.63;58.74
63731;BME280;49747;51.334;6.830;2023-03-08T09:19:12;98869.53;;;9.69;58.97
63731;BME280;49747;51.334;6.830;2023-03-08T09:21:39;98873.06;;;9.70;59.19
63731;BME280;49747;51.334;6.830;2023-03-08T09:24:06;98863.28;;;9.70;58.74
63731;BME280;49747;51.334;6.830;2023-03-08T09:26:35;98871.31;;;9.78;58.97
63731;BME280;49747;51.334;6.830;2023-03-08T09:29:02;98865.84;;;9.80;58.59
63731;BME280;49747;51.334;6.830;2023-03-08T09:31:31;98863.72;;;9.83;58.68
63731;BME280;49747;51.334;6.830;2023-03-08T09:33:58;98853.94;;;9.84;58.84
63731;BME280;49747;51.334;6.830;2023-03-08T09:36:25;98856.47;;;9.85;59.28
63731;BME280;49747;51.334;6.830;2023-03-08T09:38:54;98862.97;;;9.91;58.96
63731;BME280;49747;51.334;6.830;2023-03-08T09:41:44;98865.78;;;9.90;58.42
63731;BME280;49747;51.334;6.830;2023-03-08T09:52:56;98854.25;;;9.99;58.02
63731;BME280;49747;51.334;6.830;2023-03-08T09:55:29;98856.38;;;9.95;58.58
63731;BME280;49747;51.334;6.830;2023-03-08T10:00:35;98841.34;;;10.04;57.73
63731;BME280;49747;51.334;6.830;2023-03-08T10:05:58;98855.31;;;10.06;57.77
63731;BME280;49747;51.334;6.830;2023-03-08T10:08:34;98839.41;;;10.06;57.76
63731;BME280;49747;51.334;6.830;2023-03-08T10:11:09;98844.25;;;10.10;58.15
63731;BME280;49747;51.334;6.830;2023-03-08T10:13:40;98838.63;;;10.14;57.46
63731;BME280;49747;51.334;6.830;2023-03-08T10:18:51;98828.06;;;10.22;58.04
63731;BME280;49747;51.334;6.830;2023-03-08T10:21:21;98824.56;;;10.21;57.96
63731;BME280;49747;51.334;6.830;2023-03-08T10:26:32;98812.16;;;10.22;57.58
63731;BME280;49747;51.334;6.830;2023-03-08T10:28:59;98817.69;;;10.28;57.21
63731;BME280;49747;51.334;6.830;2023-03-08T10:31:28;98808.59;;;10.31;57.07
63731;BME280;49747;51.334;6.830;2023-03-08T10:34:02;98807.28;;;10.35;57.06
63731;BME280;49747;51.334;6.830;2023-03-08T10:36:28;98791.84;;;10.30;57.36
63731;BME280;49747;51.334;6.830;2023-03-08T10:39:03;98789.72;;;10.34;56.98
63731;BME280;49747;51.334;6.830;2023-03-08T10:41:35;98787.41;;;10.39;56.89
63731;BME280;49747;51.334;6.830;2023-03-08T10:44:02;98791.88;;;10.39;56.68
63731;BME280;49747;51.334;6.830;2023-03-08T10:46:29;98781.28;;;10.39;56.38
63731;BME280;49747;51.334;6.830;2023-03-08T10:51:56;98787.63;;;10.46;56.98
63731;BME280;49747;51.334;6.830;2023-03-08T10:54:23;98778.16;;;10.43;56.38
63731;BME280;49747;51.334;6.830;2023-03-08T10:56:58;98771.69;;;9.58;59.34
63731;BME280;49747;51.334;6.830;2023-03-08T10:59:28;98764.84;;;9.02;60.80
63731;BME280;49747;51.334;6.830;2023-03-08T11:02:01;98765.13;;;8.71;62.08
63731;BME280;49747;51.334;6.830;2023-03-08T11:04:29;98774.31;;;8.30;63.86
63731;BME280;49747;51.334;6.830;2023-03-08T11:06:56;98786.19;;;8.16;65.33
63731;BME280;49747;51.334;6.830;2023-03-08T11:09:28;98770.66;;;7.84;65.82
63731;BME280;49747;51.334;6.830;2023-03-08T11:11:56;98779.41;;;7.46;68.63
63731;BME280;49747;51.334;6.830;2023-03-08T11:14:27;98776.38;;;7.50;68.54
63731;BME280;49747;51.334;6.830;2023-03-08T11:17:32;98776.06;;;7.53;68.06
63731;BME280;49747;51.334;6.830;2023-03-08T11:20:15;98768.69;;;7.76;68.17
63731;BME280;49747;51.334;6.830;2023-03-08T11:25:34;98780.66;;;7.41;70.48
63731;BME280;49747;51.334;6.830;2023-03-08T11:31:12;98772.84;;;7.21;69.81
63731;BME280;49747;51.334;6.830;2023-03-08T11:33:56;98769.34;;;6.91;70.87
63731;BME280;49747;51.334;6.830;2023-03-08T11:36:49;98760.22;;;7.24;69.65
63731;BME280;49747;51.334;6.830;2023-03-08T11:39:32;98761.06;;;7.15;69.68
63731;BME280;49747;51.334;6.830;2023-03-08T11:50:14;98768.63;;;6.79;71.78
63731;BME280;49747;51.334;6.830;2023-03-08T11:58:35;98777.75;;;6.35;73.69
63731;BME280;49747;51.334;6.830;2023-03-08T12:01:17;98768.81;;;6.05;74.39
63731;BME280;49747;51.334;6.830;2023-03-08T12:03:51;98761.13;;;5.92;75.61
63731;BME280;49747;51.334;6.830;2023-03-08T12:06:25;98773.06;;;6.17;75.41
63731;BME280;49747;51.334;6.830;2023-03-08T12:09:08;98778.06;;;6.21;75.13
63731;BME280;49747;51.334;6.830;2023-03-08T12:11:44;98773.69;;;6.10;75.28
63731;BME280;49747;51.334;6.830;2023-03-08T12:14:17;98777.94;;;6.22;75.29
63731;BME280;49747;51.334;6.830;2023-03-08T12:16:50;98775.25;;;6.12;76.16
63731;BME280;49747;51.334;6.830;2023-03-08T12:19:41;98768.25;;;6.23;75.45
63731;BME280;49747;51.334;6.830;2023-03-08T12:30:14;98721.44;;;6.15;76.59
63731;BME280;49747;51.334;6.830;2023-03-08T12:32:43;98713.16;;;5.78;77.98
63731;BME280;49747;51.334;6.830;2023-03-08T12:35:25;98729.06;;;6.18;75.58
63731;BME280;49747;51.334;6.830;2023-03-08T12:38:01;98734.09;;;6.21;76.60
63731;BME280;49747;51.334;6.830;2023-03-08T12:40:43;98729.88;;;5.88;77.73
63731;BME280;49747;51.334;6.830;2023-03-08T12:43:13;98715.66;;;6.00;76.82
63731;BME280;49747;51.334;6.830;2023-03-08T12:45:42;98707.19;;;6.27;76.78
63731;BME280;49747;51.334;6.830;2023-03-08T12:48:22;98713.28;;;5.97;77.95
63731;BME280;49747;51.334;6.830;2023-03-08T12:50:56;98714.53;;;6.24;76.79
63731;BME280;49747;51.334;6.830;2023-03-08T12:53:35;98720.00;;;6.41;76.20
63731;BME280;49747;51.334;6.830;2023-03-08T12:58:47;98712.81;;;6.13;76.88
63731;BME280;49747;51.334;6.830;2023-03-08T13:03:57;98708.84;;;6.19;77.52
63731;BME280;49747;51.334;6.830;2023-03-08T13:09:17;98700.44;;;6.34;76.21
63731;BME280;49747;51.334;6.830;2023-03-08T13:11:50;98700.13;;;6.28;77.49
63731;BME280;49747;51.334;6.830;2023-03-08T13:14:39;98699.16;;;6.29;77.17
63731;BME280;49747;51.334;6.830;2023-03-08T13:20:00;98693.56;;;6.22;77.97
63731;BME280;49747;51.334;6.830;2023-03-08T13:22:33;98701.59;;;6.11;78.80
63731;BME280;49747;51.334;6.830;2023-03-08T13:25:21;98705.28;;;5.99;78.10
63731;BME280;49747;51.334;6.830;2023-03-08T13:28:06;98697.56;;;6.16;78.49
63731;BME280;49747;51.334;6.830;2023-03-08T13:30:36;98698.78;;;6.03;77.66
63731;BME280;49747;51.334;6.830;2023-03-08T13:33:24;98714.00;;;5.99;79.62
63731;BME280;49747;51.334;6.830;2023-03-08T13:36:05;98717.25;;;5.91;79.34
63731;BME280;49747;51.334;6.830;2023-03-08T13:38:36;98706.69;;;6.03;78.49
63731;BME280;49747;51.334;6.830;2023-03-08T13:41:05;98688.34;;;6.01;78.52
63731;BME280;49747;51.334;6.830;2023-03-08T13:43:33;98697.44;;;6.18;77.78
63731;BME280;49747;51.334;6.830;2023-03-08T13:46:01;98679.69;;;6.20;77.56
63731;BME280;49747;51.334;6.830;2023-03-08T13:48:30;98685.41;;;5.53;80.31
63731;BME280;49747;51.334;6.830;2023-03-08T13:50:58;98680.47;;;5.90;79.26
63731;BME280;49747;51.334;6.830;2023-03-08T13:53:28;98693.25;;;5.64;79.45
63731;BME280;49747;51.334;6.830;2023-03-08T13:56:00;98687.34;;;5.92;78.84
63731;BME280;49747;51.334;6.830;2023-03-08T13:58:33;98683.81;;;6.13;78.46
63731;BME280;49747;51.334;6.830;2023-03-08T14:01:12;98684.69;;;5.72;79.05
63731;BME280;49747;51.334;6.830;2023-03-08T14:03:41;98667.66;;;5.76;80.20
63731;BME280;49747;51.334;6.830;2023-03-08T14:06:16;98676.41;;;5.76;80.75
63731;BME280;49747;51.334;6.830;2023-03-08T14:08:44;98671.44;;;5.62;80.44
63731;BME280;49747;51.334;6.830;2023-03-08T14:11:17;98667.78;;;5.53;82.60
63731;BME280;49747;51.334;6.830;2023-03-08T14:13:46;98669.72;;;5.72;81.11
63731;BME280;49747;51.334;6.830;2023-03-08T14:16:30;98672.03;;;5.65;81.35
63731;BME280;49747;51.334;6.830;2023-03-08T14:21:36;98661.00;;;5.51;81.13
63731;BME280;49747;51.334;6.830;2023-03-08T14:24:03;98679.81;;;5.67;81.91
63731;BME280;49747;51.334;6.830;2023-03-08T14:26:38;98674.16;;;5.72;81.70